Terminal Aerodrome Forecast
Issued by NWS

Home | Current Version | Previous Version | Graphics & Text | Print | Product List | Glossary On
Versions: 1 2 3 4 5 6 7 8 9 10 11 12 13 14 15 16 17 18
000
FTUS43 KABR 242326
TAFMBG
TAF
KMBG 242326Z 2500/2524 06006KT P6SM -RA OVC015
      TEMPO 2500/2502 3SM RA BR
     FM250300 04006KT 5SM -RA BR OVC008
     FM251700 08009KT P6SM -SHRA OVC015=

USA.gov is the U.S. government's official web portal to all federal, state and local government web resources and services.